Time;durP1;ratioP1;P1;durP2;ratioP2;P2;SDS_P1;SDS_P2;PMS_P1;PMS_P2;Temp;Humidity;BMP_temperature;BMP_pressure;BME280_temperature;BME280_humidity;BME280_pressure;Samples;Min_cycle;Max_cycle;Signal;HPM_P1;HPM_P2
2022/11/12 00:00:59;;;;;;;10.25;8.32;;;;;;;7.51;74.84;98214.38;6224275;23;20028;-76
2022/11/12 00:03:28;;;;;;;10.15;7.95;;;;;;;7.51;75.04;98213.56;6224633;23;20025;-77
2022/11/12 00:05:56;;;;;;;9.07;7.78;;;;;;;7.51;75.18;98216.16;6219755;23;20032;-77
2022/11/12 00:08:23;;;;;;;10.30;8.30;;;;;;;7.48;74.97;98212.06;6215754;23;20028;-76
2022/11/12 00:10:51;;;;;;;11.50;7.65;;;;;;;7.46;75.23;98215.72;6215460;23;20025;-76
2022/11/12 00:13:19;;;;;;;11.52;7.85;;;;;;;7.46;75.26;98218.31;6215088;23;20063;-76
2022/11/12 00:15:47;;;;;;;9.23;8.23;;;;;;;7.43;75.30;98209.81;6214487;23;20476;-76
2022/11/12 00:18:15;;;;;;;9.45;8.18;;;;;;;7.45;75.79;98204.47;6214264;23;20491;-76
2022/11/12 00:20:44;;;;;;;8.88;7.85;;;;;;;7.45;76.06;98214.06;6215003;23;20111;-77
2022/11/12 00:23:11;;;;;;;11.38;9.48;;;;;;;7.45;76.29;98214.06;6214443;23;20476;-76
2022/11/12 00:25:39;;;;;;;12.45;9.07;;;;;;;7.44;76.14;98210.63;6214745;23;20364;-76
2022/11/12 00:28:09;;;;;;;10.15;8.32;;;;;;;7.46;76.61;98220.91;6218212;23;20016;-76
2022/11/12 00:30:38;;;;;;;11.57;9.35;;;;;;;7.44;76.44;98215.84;6232155;23;20073;-77
2022/11/12 00:33:06;;;;;;;10.23;8.50;;;;;;;7.43;76.54;98211.56;6228307;23;20044;-76
2022/11/12 00:35:35;;;;;;;12.40;8.55;;;;;;;7.46;76.33;98215.72;6215448;23;20033;-77
2022/11/12 00:38:03;;;;;;;8.82;7.72;;;;;;;7.47;76.04;98219.94;6214567;23;20017;-76
2022/11/12 00:40:31;;;;;;;8.38;7.50;;;;;;;7.46;76.19;98219.13;6214724;23;20024;-76
2022/11/12 00:42:58;;;;;;;9.85;7.68;;;;;;;7.47;76.31;98217.34;6214751;23;20025;-77
2022/11/12 00:45:26;;;;;;;10.77;7.43;;;;;;;7.46;76.48;98221.72;6214670;23;20021;-77
2022/11/12 00:47:55;;;;;;;8.05;7.22;;;;;;;7.44;76.02;98221.03;6214755;23;20020;-76
2022/11/12 00:50:23;;;;;;;8.45;7.43;;;;;;;7.41;75.88;98218.66;6216083;23;20025;-76
2022/11/12 00:52:52;;;;;;;8.48;6.78;;;;;;;7.43;76.31;98228.00;6215425;23;20016;-76
2022/11/12 00:55:21;;;;;;;8.25;7.15;;;;;;;7.44;76.32;98223.63;6215040;23;20024;-76
2022/11/12 00:57:48;;;;;;;9.52;6.88;;;;;;;7.42;76.04;98226.34;6214836;23;20027;-77
2022/11/12 01:00:18;;;;;;;8.80;7.13;;;;;;;7.41;76.42;98219.50;6214881;23;20024;-76
2022/11/12 01:02:46;;;;;;;8.38;6.78;;;;;;;7.41;76.19;98214.31;6214589;23;20052;-76
2022/11/12 01:05:18;;;;;;;6.30;5.70;;;;;;;7.38;75.96;98217.13;6215929;23;20021;-77
2022/11/12 01:07:46;;;;;;;6.95;5.50;;;;;;;7.36;76.34;98210.41;6215965;23;20047;-76
2022/11/12 01:10:22;;;;;;;6.70;5.13;;;;;;;7.38;76.01;98209.34;6217113;23;20017;-76
2022/11/12 01:12:50;;;;;;;6.68;5.55;;;;;;;7.39;76.22;98213.59;6216834;23;20021;-77
2022/11/12 01:15:17;;;;;;;7.13;5.43;;;;;;;7.38;75.72;98216.31;6216795;23;20031;-76
2022/11/12 01:17:45;;;;;;;8.00;5.68;;;;;;;7.31;75.52;98217.75;6215938;23;20036;-76
2022/11/12 01:20:12;;;;;;;5.78;5.15;;;;;;;7.26;75.42;98212.94;6216419;23;20020;-76
2022/11/12 01:22:40;;;;;;;6.95;5.13;;;;;;;7.22;75.27;98214.94;6216396;23;20024;-77
2022/11/12 01:25:08;;;;;;;5.53;4.65;;;;;;;7.19;75.33;98211.75;6216220;23;20330;-77
2022/11/12 01:27:37;;;;;;;6.45;5.20;;;;;;;7.16;75.10;98204.22;6216338;23;20020;-76
2022/11/12 01:30:05;;;;;;;9.23;4.90;;;;;;;7.15;75.33;98202.53;6216447;23;20020;-75
2022/11/12 01:32:35;;;;;;;6.57;4.70;;;;;;;7.16;75.21;98204.22;6217122;23;20023;-77
2022/11/12 01:35:03;;;;;;;8.25;5.00;;;;;;;7.16;75.12;98193.84;6217131;23;20021;-76
2022/11/12 01:37:31;;;;;;;5.25;4.03;;;;;;;7.14;75.18;98201.72;6216445;23;20032;-76
2022/11/12 01:39:58;;;;;;;4.40;4.00;;;;;;;7.11;75.01;98189.00;6215979;23;20027;-76
2022/11/12 01:42:27;;;;;;;5.10;4.60;;;;;;;7.11;74.90;98193.38;6215686;23;20020;-76
2022/11/12 01:44:56;;;;;;;5.95;4.80;;;;;;;7.07;74.70;98194.56;6215758;23;20551;-76
2022/11/12 01:47:27;;;;;;;7.55;4.68;;;;;;;7.03;74.95;98188.78;6215655;23;20023;-76
2022/11/12 01:49:58;;;;;;;6.45;5.60;;;;;;;7.04;75.11;98194.78;6215861;23;20021;-76
2022/11/12 01:52:31;;;;;;;6.53;5.20;;;;;;;7.02;75.23;98192.31;6216227;23;20071;-76
2022/11/12 01:55:04;;;;;;;5.82;4.60;;;;;;;7.01;75.38;98198.44;6216031;23;20020;-76
2022/11/12 01:57:37;;;;;;;5.35;4.80;;;;;;;7.01;76.25;98194.06;6215523;23;20019;-77
2022/11/12 02:00:09;;;;;;;6.45;5.70;;;;;;;7.01;74.64;98186.28;6215714;23;20135;-76
2022/11/12 02:02:37;;;;;;;8.13;5.40;;;;;;;7.01;75.32;98191.47;6216028;23;20115;-77
2022/11/12 02:05:08;;;;;;;7.70;5.38;;;;;;;7.07;76.42;98185.00;6216051;23;20020;-77
2022/11/12 02:07:38;;;;;;;7.53;5.65;;;;;;;7.13;76.33;98188.88;6215498;23;20024;-77
2022/11/12 02:10:08;;;;;;;6.32;5.00;;;;;;;7.13;75.89;98176.75;6215270;23;20024;-76
2022/11/12 02:15:23;;;;;;;7.05;4.70;;;;;;;7.10;74.97;98183.94;6215424;23;20028;-76
2022/11/12 02:17:50;;;;;;;5.38;4.88;;;;;;;7.14;76.26;98174.97;6215712;23;20024;-76
2022/11/12 02:20:18;;;;;;;5.80;5.03;;;;;;;7.18;76.14;98181.56;6215741;23;20020;-77
2022/11/12 02:22:47;;;;;;;6.50;5.90;;;;;;;7.10;73.46;98181.34;6215437;23;20024;-76
2022/11/12 02:25:18;;;;;;;6.50;5.80;;;;;;;7.00;73.49;98174.28;6215469;23;20495;-76
2022/11/12 02:27:50;;;;;;;6.07;5.00;;;;;;;6.93;72.80;98174.88;6215383;23;20020;-76
2022/11/12 02:30:18;;;;;;;5.68;4.60;;;;;;;6.86;73.34;98169.34;6215821;23;20024;-77
2022/11/12 02:32:46;;;;;;;4.75;4.35;;;;;;;6.86;74.64;98171.09;6215944;23;20024;-76
2022/11/12 02:35:13;;;;;;;7.22;4.10;;;;;;;6.88;75.01;98170.03;6215521;23;20073;-76
2022/11/12 02:37:41;;;;;;;4.70;4.00;;;;;;;6.92;74.63;98166.25;6215540;23;20020;-76
2022/11/12 02:40:10;;;;;;;4.25;3.85;;;;;;;6.88;74.15;98166.63;6215757;23;20017;-76
2022/11/12 02:42:38;;;;;;;4.30;3.78;;;;;;;6.85;73.97;98170.28;6215249;23;20522;-76
2022/11/12 02:45:06;;;;;;;4.47;3.75;;;;;;;6.84;73.57;98173.00;6215326;23;20033;-76
2022/11/12 02:47:34;;;;;;;3.45;3.15;;;;;;;6.82;73.38;98165.31;6215310;23;20023;-76
2022/11/12 02:50:01;;;;;;;3.33;3.03;;;;;;;6.81;73.29;98167.09;6214991;23;20024;-76
2022/11/12 02:52:29;;;;;;;4.00;3.10;;;;;;;6.81;72.97;98164.50;6215158;23;20016;-76
2022/11/12 02:54:56;;;;;;;3.38;3.08;;;;;;;6.81;72.84;98161.91;6215375;23;20029;-76
2022/11/12 02:57:25;;;;;;;3.28;2.97;;;;;;;6.86;73.96;98160.72;6215413;23;20124;-76
2022/11/12 02:59:53;;;;;;;3.85;2.92;;;;;;;6.88;74.29;98158.84;6214894;23;20024;-76
2022/11/12 03:02:20;;;;;;;5.85;3.50;;;;;;;6.88;73.66;98159.66;6214829;23;20021;-76
2022/11/12 03:04:48;;;;;;;3.60;3.25;;;;;;;6.91;74.13;98156.00;6215533;23;20024;-76
2022/11/12 03:07:16;;;;;;;3.33;3.03;;;;;;;6.87;73.43;98163.22;6214991;23;20021;-76
2022/11/12 03:09:43;;;;;;;3.78;3.45;;;;;;;6.82;72.83;98165.31;6215640;23;20025;-76
2022/11/12 03:12:11;;;;;;;3.80;3.40;;;;;;;6.76;72.43;98158.84;6214998;23;20027;-76
2022/11/12 03:14:40;;;;;;;3.47;3.17;;;;;;;6.75;73.92;98166.75;6215608;23;20097;-76
2022/11/12 03:17:07;;;;;;;5.05;3.47;;;;;;;6.76;73.85;98165.81;6213314;22;20035;-79
2022/11/12 03:19:35;;;;;;;5.65;3.95;;;;;;;6.76;73.93;98165.81;6214811;23;20016;-78
2022/11/12 03:22:02;;;;;;;3.97;3.58;;;;;;;6.79;73.59;98165.56;6215772;23;20029;-78
2022/11/12 03:24:30;;;;;;;3.95;3.55;;;;;;;6.74;73.10;98157.34;6215463;23;20021;-78
2022/11/12 03:26:58;;;;;;;2.88;2.67;;;;;;;6.72;73.34;98162.63;6215050;23;20030;-78
2022/11/12 03:29:26;;;;;;;3.80;3.50;;;;;;;6.68;72.78;98160.41;6214880;23;20023;-79
2022/11/12 03:31:54;;;;;;;3.00;2.75;;;;;;;6.65;73.53;98160.63;6215183;23;20020;-79
2022/11/12 03:34:22;;;;;;;6.57;3.13;;;;;;;6.63;73.15;98160.75;6215348;23;20028;-79
2022/11/12 03:36:50;;;;;;;3.78;3.38;;;;;;;6.62;73.22;98164.28;6214692;23;20464;-79
2022/11/12 03:39:17;;;;;;;3.78;3.05;;;;;;;6.61;72.87;98162.63;6215445;23;20029;-78
2022/11/12 03:41:45;;;;;;;3.10;2.80;;;;;;;6.63;73.38;98162.53;6215146;23;20019;-79
2022/11/12 03:44:12;;;;;;;3.65;3.35;;;;;;;6.71;75.29;98167.94;6215235;23;20025;-79
2022/11/12 03:46:40;;;;;;;3.67;3.22;;;;;;;6.84;76.46;98173.00;6214876;23;20020;-78
2022/11/12 03:49:12;;;;;;;4.95;4.15;;;;;;;6.94;76.13;98168.75;6214932;23;20017;-78
2022/11/12 03:51:39;;;;;;;6.00;4.28;;;;;;;7.03;75.95;98175.81;6214907;23;20017;-78
2022/11/12 03:54:07;;;;;;;4.68;3.78;;;;;;;7.01;73.72;98181.09;6214924;23;20025;-78
2022/11/12 03:56:35;;;;;;;4.82;4.40;;;;;;;6.96;74.39;98182.44;6214865;23;20027;-78
2022/11/12 03:59:02;;;;;;;4.88;4.38;;;;;;;7.02;76.47;98184.53;6227934;23;20012;-80
2022/11/12 04:01:30;;;;;;;4.78;4.38;;;;;;;7.06;75.83;98174.72;6236433;23;20055;-79
2022/11/12 04:03:58;;;;;;;4.93;4.47;;;;;;;7.06;76.73;98179.91;6235490;23;20403;-79
2022/11/12 04:09:12;;;;;;;7.32;4.40;;;;;;;7.03;74.62;98172.38;6215082;23;20104;-78
2022/11/12 04:11:40;;;;;;;6.82;4.63;;;;;;;6.98;72.91;98176.16;6214514;23;20024;-78
2022/11/12 04:14:06;;;;;;;9.73;4.70;;;;;;;6.88;73.55;98170.03;6215091;23;20020;-79
2022/11/12 04:22:07;;;;;;;6.00;4.32;;;;;;;6.86;73.96;98177.13;6216291;23;20020;-79
2022/11/12 04:27:24;;;;;;;5.35;4.13;;;;;;;6.99;74.72;98184.75;6215147;23;20027;-78
2022/11/12 04:32:39;;;;;;;3.80;3.42;;;;;;;7.05;74.32;98178.28;6214866;23;20036;-79
2022/11/12 04:35:08;;;;;;;4.55;2.90;;;;;;;7.07;74.04;98179.00;6214874;23;20020;-78
2022/11/12 04:37:47;;;;;;;3.80;2.97;;;;;;;7.03;74.25;98182.78;6214599;23;20020;-78
2022/11/12 04:45:56;;;;;;;3.10;2.78;;;;;;;6.88;74.11;98175.22;6216193;23;20021;-78
2022/11/12 04:48:25;;;;;;;3.75;3.33;;;;;;;6.91;74.78;98168.97;6215832;23;20452;-79
2022/11/12 04:50:55;;;;;;;3.40;3.10;;;;;;;6.93;74.30;98178.31;6217007;23;20048;-79
2022/11/12 04:53:24;;;;;;;3.17;2.97;;;;;;;6.97;74.16;98178.88;6216871;23;20020;-78
2022/11/12 04:55:53;;;;;;;4.97;3.15;;;;;;;6.96;73.90;98179.81;6216540;23;20024;-78
2022/11/12 04:58:21;;;;;;;3.10;2.80;;;;;;;6.98;74.88;98176.16;6216437;23;20021;-78
2022/11/12 05:00:50;;;;;;;3.72;3.28;;;;;;;7.01;74.75;98175.91;6216610;23;20094;-78
2022/11/12 05:03:18;;;;;;;3.92;3.55;;;;;;;7.06;74.23;98182.50;6216459;23;20052;-78
2022/11/12 05:05:45;;;;;;;3.88;3.47;;;;;;;7.03;73.64;98185.34;6216419;23;20016;-78
2022/11/12 05:08:13;;;;;;;3.15;2.85;;;;;;;6.99;73.61;98184.75;6216018;23;20043;-79
2022/11/12 05:10:42;;;;;;;3.72;3.35;;;;;;;6.97;73.57;98190.06;6216020;23;20020;-79
2022/11/12 05:13:09;;;;;;;4.35;3.95;;;;;;;6.95;73.75;98191.97;6214954;23;20044;-79
2022/11/12 05:15:37;;;;;;;4.00;3.60;;;;;;;6.95;73.85;98191.97;6215959;23;20017;-79
2022/11/12 05:18:04;;;;;;;4.35;3.95;;;;;;;6.94;72.51;98190.31;6216141;23;20017;-80
2022/11/12 05:20:32;;;;;;;4.93;4.43;;;;;;;6.85;72.13;98188.44;6216893;23;20038;-79
2022/11/12 05:23:00;;;;;;;3.78;3.30;;;;;;;6.79;73.46;98188.91;6216748;23;20027;-79
2022/11/12 05:25:35;;;;;;;10.35;7.25;;;;;;;6.74;73.23;98183.28;6216406;23;20032;-78
2022/11/12 05:28:04;;;;;;;6.20;4.75;;;;;;;6.73;74.04;98186.78;6215978;23;20024;-79
2022/11/12 05:30:34;;;;;;;5.40;4.45;;;;;;;6.77;73.87;98188.22;6216794;23;20433;-79
2022/11/12 05:33:01;;;;;;;4.97;4.47;;;;;;;6.79;74.53;98187.13;6216435;23;20099;-78
2022/11/12 05:35:29;;;;;;;5.10;4.30;;;;;;;6.73;73.28;98190.19;6216537;23;20028;-79
2022/11/12 05:37:57;;;;;;;5.00;4.28;;;;;;;6.70;72.93;98192.22;6215702;23;20027;-78
2022/11/12 05:40:24;;;;;;;4.13;3.80;;;;;;;6.71;73.62;98193.84;6216420;23;20016;-79
2022/11/12 05:42:52;;;;;;;4.30;3.90;;;;;;;6.69;73.57;98187.97;6216407;23;20021;-78
2022/11/12 05:45:20;;;;;;;3.85;3.47;;;;;;;6.68;73.42;98184.56;6215457;23;20028;-79
2022/11/12 05:47:49;;;;;;;3.88;3.58;;;;;;;6.69;73.23;98190.56;6215725;23;20030;-79
2022/11/12 05:50:17;;;;;;;4.43;3.90;;;;;;;6.68;73.09;98188.94;6215652;23;20031;-79
2022/11/12 05:52:45;;;;;;;3.65;3.35;;;;;;;6.66;73.75;98190.81;6215967;23;20487;-79
2022/11/12 05:55:13;;;;;;;3.78;3.47;;;;;;;6.66;74.10;98185.63;6215898;23;20020;-78
2022/11/12 05:57:40;;;;;;;4.55;3.72;;;;;;;6.65;73.80;98189.13;6215626;23;20028;-78
2022/11/12 06:00:09;;;;;;;4.93;3.65;;;;;;;6.62;73.63;98187.63;6215335;23;20468;-79
2022/11/12 06:02:38;;;;;;;6.85;3.60;;;;;;;6.60;73.27;98179.97;6215887;23;20020;-78
2022/11/12 06:05:06;;;;;;;4.07;3.30;;;;;;;6.58;73.48;98189.63;6215396;23;20020;-79
2022/11/12 06:07:34;;;;;;;5.65;3.67;;;;;;;6.59;74.30;98185.25;6216011;23;20020;-78
2022/11/12 06:10:02;;;;;;;3.63;3.33;;;;;;;6.58;73.97;98189.63;6215064;23;20028;-78
2022/11/12 06:12:30;;;;;;;5.05;3.75;;;;;;;6.55;74.92;98189.84;6215130;23;20091;-79
2022/11/12 06:14:58;;;;;;;4.03;3.63;;;;;;;6.51;73.79;98187.63;6216064;23;20078;-82
2022/11/12 06:17:26;;;;;;;4.97;3.58;;;;;;;6.49;73.90;98190.31;6215371;23;20035;-79
2022/11/12 06:19:55;;;;;;;3.55;3.00;;;;;;;6.46;73.55;98187.97;6215571;23;20031;-78
2022/11/12 06:22:23;;;;;;;3.30;3.00;;;;;;;6.44;73.57;98195.03;6215303;23;20021;-80
2022/11/12 06:24:50;;;;;;;4.63;3.63;;;;;;;6.42;73.25;98196.09;6213723;23;20025;-80
2022/11/12 06:27:18;;;;;;;3.33;3.03;;;;;;;6.42;73.46;98196.91;6215523;23;20023;-80
2022/11/12 06:29:45;;;;;;;3.75;3.38;;;;;;;6.42;73.41;98194.31;6215357;23;20020;-79
2022/11/12 06:32:13;;;;;;;4.22;3.58;;;;;;;6.37;73.24;98196.44;6215702;23;20024;-80
2022/11/12 06:34:40;;;;;;;4.25;3.65;;;;;;;6.32;73.37;98199.38;6215926;23;20028;-80
2022/11/12 06:37:09;;;;;;;4.35;3.95;;;;;;;6.29;73.59;98193.59;6216672;23;20021;-80
2022/11/12 06:39:37;;;;;;;4.72;4.22;;;;;;;6.31;73.79;98194.31;6215788;23;20021;-80
2022/11/12 06:42:05;;;;;;;4.63;3.80;;;;;;;6.36;73.79;98195.63;6216400;23;20021;-79
2022/11/12 06:44:32;;;;;;;4.03;3.63;;;;;;;6.42;74.31;98194.31;6215847;23;20021;-79
2022/11/12 06:47:01;;;;;;;4.72;4.30;;;;;;;6.45;74.12;98194.09;6215936;23;20035;-82
2022/11/12 06:49:29;;;;;;;4.13;3.72;;;;;;;6.50;73.96;98191.97;6232829;23;20024;-81
2022/11/12 06:51:56;;;;;;;4.45;3.65;;;;;;;6.51;73.17;98191.03;6241323;23;20036;-81
2022/11/12 06:54:26;;;;;;;3.13;2.92;;;;;;;6.48;72.87;98198.22;6241212;23;20020;-80
2022/11/12 06:56:54;;;;;;;3.72;3.40;;;;;;;6.45;73.02;98196.69;6239223;23;20008;-81
2022/11/12 06:59:22;;;;;;;4.10;3.70;;;;;;;6.43;72.93;98201.16;6224108;23;20021;-81
2022/11/12 07:01:50;;;;;;;3.60;2.97;;;;;;;6.42;72.66;98194.31;6220847;23;20032;-81
2022/11/12 07:07:20;;;;;;;3.97;3.08;;;;;;;6.48;74.68;98187.84;6210437;22;20024;-80
2022/11/12 07:45:40;;;;;;;6.75;5.00;;;;;;;6.65;72.38;98189.13;6191199;23;20028;-80
2022/11/12 07:48:09;;;;;;;10.55;6.53;;;;;;;6.67;72.08;98184.66;6191072;23;20017;-81
2022/11/12 07:50:36;;;;;;;7.40;5.50;;;;;;;6.71;72.32;98183.50;6192074;23;20071;-81
2022/11/12 07:53:04;;;;;;;6.05;4.97;;;;;;;6.77;71.98;98183.03;6192238;23;20092;-81
2022/11/12 07:55:31;;;;;;;5.72;4.93;;;;;;;6.84;71.98;98183.38;6192106;23;20576;-80
2022/11/12 07:57:59;;;;;;;6.30;4.53;;;;;;;6.90;71.80;98183.72;6190308;23;20017;-80
2022/11/12 08:00:27;;;;;;;5.18;4.07;;;;;;;6.99;71.95;98187.34;6189515;23;20021;-80
2022/11/12 08:02:55;;;;;;;5.03;4.13;;;;;;;7.07;71.45;98179.00;6189378;23;20021;-80
2022/11/12 08:05:24;;;;;;;5.32;4.75;;;;;;;7.16;71.14;98188.63;6191524;23;20031;-79
2022/11/12 08:07:51;;;;;;;7.30;5.13;;;;;;;7.25;71.76;98187.09;6190546;23;20100;-81
2022/11/12 08:10:19;;;;;;;4.80;4.40;;;;;;;7.37;71.16;98193.91;6190714;23;20066;-80
2022/11/12 08:12:46;;;;;;;5.47;3.80;;;;;;;7.44;70.82;98176.88;6202484;23;20031;-79
2022/11/12 08:15:14;;;;;;;6.05;5.07;;;;;;;7.52;70.57;98182.28;6199237;23;20032;-81
2022/11/12 08:17:42;;;;;;;5.93;4.20;;;;;;;7.62;71.93;98187.56;6202008;23;20036;-81
2022/11/12 08:20:11;;;;;;;6.03;4.47;;;;;;;7.71;70.64;98184.22;6212448;23;20012;-81
2022/11/12 08:22:40;;;;;;;5.63;4.97;;;;;;;7.82;70.82;98191.94;6210233;23;20021;-83
2022/11/12 08:25:15;;;;;;;5.03;4.53;;;;;;;7.91;70.18;98186.97;6197711;23;20028;-82
2022/11/12 08:27:44;;;;;;;6.38;3.90;;;;;;;7.95;70.04;98190.97;6193329;23;20100;-82
2022/11/12 08:30:13;;;;;;;5.80;4.10;;;;;;;8.04;70.32;98192.78;6192870;23;20083;-82
2022/11/12 08:32:42;;;;;;;5.50;4.43;;;;;;;8.15;69.73;98192.72;6192697;23;20021;-82
2022/11/12 08:35:12;;;;;;;4.90;4.40;;;;;;;8.30;69.57;98195.00;6191523;23;20464;-82
2022/11/12 08:37:42;;;;;;;4.63;4.13;;;;;;;8.41;69.39;98197.56;6191944;23;20483;-82
2022/11/12 08:40:11;;;;;;;4.40;4.00;;;;;;;8.47;68.90;98197.06;6193164;23;20020;-82
2022/11/12 08:42:41;;;;;;;6.63;4.80;;;;;;;8.57;68.57;98187.53;6193426;23;20017;-82
2022/11/12 08:45:10;;;;;;;6.85;4.88;;;;;;;8.69;68.43;98193.47;6189434;23;20099;-82
2022/11/12 08:47:41;;;;;;;6.80;5.30;;;;;;;8.83;68.56;98194.88;6197329;23;20009;-82
2022/11/12 08:50:10;;;;;;;6.88;5.20;;;;;;;9.02;67.83;98196.72;6204840;23;20024;-82
2022/11/12 08:52:42;;;;;;;6.38;5.30;;;;;;;9.13;67.45;98188.00;6195980;23;20079;-82
2022/11/12 08:55:10;;;;;;;5.15;4.45;;;;;;;9.29;67.12;98188.28;6195094;23;20021;-82
2022/11/12 08:57:41;;;;;;;5.57;4.95;;;;;;;9.43;66.37;98184.50;6190918;23;20103;-80
2022/11/12 09:00:09;;;;;;;4.53;4.13;;;;;;;9.57;65.99;98188.47;6190541;23;20108;-79
2022/11/12 09:02:37;;;;;;;5.90;4.28;;;;;;;9.80;65.45;98187.25;6191022;23;20028;-82
2022/11/12 09:05:06;;;;;;;6.72;4.13;;;;;;;9.95;65.96;98179.00;6192513;23;20067;-81
2022/11/12 09:07:34;;;;;;;5.75;4.22;;;;;;;10.00;65.83;98195.88;6193966;23;20056;-79
2022/11/12 09:10:18;;;;;;;;;;;;;;;10.49;64.78;98182.75;6195340;23;20029;-80
2022/11/12 09:12:51;;;;;;;7.30;5.25;;;;;;;11.15;62.53;98179.19;6190367;23;19920;-79
2022/11/12 09:15:18;;;;;;;6.68;5.72;;;;;;;11.76;60.58;98190.72;6189082;23;20025;-78
2022/11/12 09:18:10;;;;;;;5.20;4.18;;;;;;;12.23;59.15;98192.28;6184805;23;20025;-76
2022/11/12 09:20:38;;;;;;;5.95;4.03;;;;;;;12.43;58.33;98191.09;6187995;23;20017;-76
2022/11/12 09:23:08;;;;;;;4.80;3.88;;;;;;;12.57;57.71;98184.44;6190026;23;20032;-76
2022/11/12 09:25:37;;;;;;;5.25;4.47;;;;;;;12.78;56.70;98189.31;6188220;23;20099;-78
2022/11/12 09:28:09;;;;;;;4.22;3.85;;;;;;;13.04;56.36;98194.50;6191554;23;20495;-77
2022/11/12 09:30:38;;;;;;;3.75;3.42;;;;;;;13.36;55.34;98193.00;6192386;23;20017;-76
2022/11/12 09:33:05;;;;;;;3.72;3.08;;;;;;;13.28;55.33;98195.56;6191115;23;20021;-76
2022/11/12 09:35:33;;;;;;;3.47;3.17;;;;;;;13.32;55.20;98189.06;6190479;23;20024;-76
2022/11/12 09:38:01;;;;;;;3.50;2.88;;;;;;;13.59;54.41;98188.78;6190469;23;20020;-77
2022/11/12 09:40:41;;;;;;;5.40;3.53;;;;;;;13.72;54.14;98193.53;6188897;23;20025;-76
2022/11/12 09:43:17;;;;;;;6.13;4.00;;;;;;;13.57;53.97;98195.16;6187093;23;20104;-77
2022/11/12 09:45:46;;;;;;;3.25;2.65;;;;;;;13.30;54.73;98194.47;6187563;23;20103;-77
2022/11/12 09:48:39;;;;;;;4.25;2.65;;;;;;;12.89;55.41;98190.84;6190736;23;20056;-76
2022/11/12 09:51:13;;;;;;;3.53;2.80;;;;;;;12.61;56.25;98193.63;6191671;23;20021;-76
2022/11/12 09:53:47;;;;;;;3.55;2.60;;;;;;;12.35;56.93;98183.19;6191757;23;20460;-77
2022/11/12 09:56:19;;;;;;;3.65;2.47;;;;;;;12.14;58.32;98191.41;6187582;23;20029;-77
2022/11/12 09:58:47;;;;;;;2.92;2.63;;;;;;;12.20;58.46;98188.19;6184838;23;20025;-77
2022/11/12 10:01:19;;;;;;;3.67;3.28;;;;;;;12.20;58.18;98185.56;6186537;23;20017;-77
2022/11/12 10:03:55;;;;;;;2.80;2.60;;;;;;;12.09;58.30;98183.16;6191276;23;20025;-77
2022/11/12 10:06:36;;;;;;;2.97;2.63;;;;;;;11.95;58.90;98181.91;6190700;23;20099;-76
2022/11/12 10:09:09;;;;;;;3.80;3.38;;;;;;;11.83;59.68;98178.69;6189690;23;20025;-76
2022/11/12 10:17:54;;;;;;;4.88;3.38;;;;;;;11.88;60.12;98184.31;6187013;23;20021;-76
2022/11/12 10:20:29;;;;;;;4.38;3.92;;;;;;;11.78;60.59;98180.94;6188345;23;20016;-76
2022/11/12 10:23:15;;;;;;;4.18;3.78;;;;;;;11.65;61.22;98180.47;6188209;23;20069;-76
2022/11/12 10:25:48;;;;;;;4.82;4.20;;;;;;;11.69;61.31;98181.84;6187798;23;20025;-76
2022/11/12 10:28:29;;;;;;;4.68;4.25;;;;;;;11.73;61.35;98177.94;6189701;23;20032;-76
2022/11/12 10:31:11;;;;;;;4.43;3.67;;;;;;;11.88;61.09;98175.66;6189341;23;20028;-76
2022/11/12 10:33:39;;;;;;;4.97;3.83;;;;;;;12.05;60.86;98166.97;6190829;23;20021;-77
2022/11/12 10:36:26;;;;;;;5.75;4.53;;;;;;;12.32;60.37;98167.78;6189882;23;20024;-76
2022/11/12 10:38:55;;;;;;;4.10;3.70;;;;;;;12.54;60.16;98162.03;6188419;23;20024;-76
2022/11/12 10:41:25;;;;;;;4.90;4.05;;;;;;;12.68;59.47;98167.66;6197884;23;20096;-76
2022/11/12 10:43:57;;;;;;;5.03;4.53;;;;;;;12.65;59.49;98158.31;6209372;23;20087;-77
2022/11/12 10:46:26;;;;;;;4.75;4.35;;;;;;;12.59;60.03;98153.69;6206772;23;20025;-76
2022/11/12 10:48:57;;;;;;;4.40;4.00;;;;;;;12.67;59.95;98156.38;6192953;23;20473;-77
2022/11/12 10:51:27;;;;;;;5.53;4.47;;;;;;;12.91;59.67;98153.03;6186966;23;20349;-76
2022/11/12 10:53:55;;;;;;;4.75;4.35;;;;;;;13.16;58.88;98150.47;6185846;23;20021;-76
2022/11/12 10:56:28;;;;;;;4.78;4.28;;;;;;;13.38;58.93;98149.94;6185059;23;20475;-76
2022/11/12 10:59:13;;;;;;;4.10;3.72;;;;;;;13.76;58.10;98154.72;6185448;23;20056;-76
2022/11/12 11:01:42;;;;;;;4.60;4.13;;;;;;;13.88;57.01;98150.75;6185435;23;20021;-76
2022/11/12 11:04:19;;;;;;;3.88;3.55;;;;;;;13.78;56.80;98150.13;6185337;23;20021;-76
2022/11/12 11:06:46;;;;;;;4.95;4.45;;;;;;;13.80;57.42;98142.91;6184967;23;20468;-77
2022/11/12 11:09:19;;;;;;;4.05;3.65;;;;;;;13.89;57.23;98147.16;6185271;23;20044;-77
2022/11/12 11:11:52;;;;;;;4.32;3.97;;;;;;;14.13;56.42;98143.69;6184195;23;20024;-76
2022/11/12 11:14:27;;;;;;;3.92;3.50;;;;;;;14.43;55.78;98139.53;6185170;23;20021;-76
2022/11/12 11:16:58;;;;;;;3.80;3.40;;;;;;;14.71;55.05;98141.75;6183761;23;20025;-76
2022/11/12 11:19:32;;;;;;;4.05;3.65;;;;;;;14.74;55.21;98138.81;6184391;23;20025;-76
2022/11/12 11:22:20;;;;;;;3.75;3.42;;;;;;;14.65;55.42;98137.22;6183565;23;20028;-76
2022/11/12 11:24:56;;;;;;;3.50;3.28;;;;;;;14.58;55.45;98130.97;6185097;23;20108;-76
2022/11/12 11:27:30;;;;;;;3.83;3.53;;;;;;;14.52;55.46;98136.88;6185643;23;20025;-76
2022/11/12 11:30:10;;;;;;;3.67;3.35;;;;;;;14.51;56.23;98125.56;6184968;23;20017;-76
2022/11/12 11:33:00;;;;;;;2.90;2.70;;;;;;;14.45;55.81;98125.41;6185099;23;20021;-76
2022/11/12 11:35:35;;;;;;;2.92;2.72;;;;;;;14.27;55.90;98129.06;6181150;23;20024;-76
2022/11/12 11:38:20;;;;;;;3.70;3.35;;;;;;;14.07;56.50;98120.75;6184417;23;20028;-76
2022/11/12 11:40:56;;;;;;;3.42;3.10;;;;;;;13.98;57.39;98133.06;6192401;23;20104;-76
2022/11/12 11:43:37;;;;;;;3.42;3.13;;;;;;;13.88;57.42;98128.97;6197232;23;20032;-77
2022/11/12 11:46:17;;;;;;;5.07;3.70;;;;;;;13.77;58.13;98132.72;6197962;23;20025;-77
2022/11/12 11:48:57;;;;;;;3.08;2.88;;;;;;;13.52;57.93;98124.88;6189569;23;20028;-76
2022/11/12 11:51:41;;;;;;;3.28;2.97;;;;;;;13.32;59.22;98123.53;6186826;23;20047;-76
2022/11/12 11:54:24;;;;;;;4.63;3.10;;;;;;;13.15;59.78;98115.59;6185019;23;20421;-77
2022/11/12 11:56:58;;;;;;;3.35;3.05;;;;;;;12.95;60.16;98112.44;6185627;23;20348;-76
2022/11/12 11:59:38;;;;;;;4.03;3.20;;;;;;;12.84;60.15;98112.75;6184278;23;20020;-76
2022/11/12 12:02:38;;;;;;;3.22;3.00;;;;;;;12.68;60.51;98110.91;6184929;23;20041;-76
2022/11/12 12:05:22;;;;;;;3.22;3.03;;;;;;;12.48;61.38;98112.91;6185312;23;20020;-76
2022/11/12 12:07:58;;;;;;;3.05;2.80;;;;;;;12.35;61.48;98107.28;6184758;23;20032;-76
2022/11/12 12:10:29;;;;;;;6.07;3.85;;;;;;;12.28;62.46;98103.66;6184728;23;20036;-76
2022/11/12 12:13:27;;;;;;;4.90;3.60;;;;;;;12.20;62.63;98101.00;6183177;23;20028;-78
2022/11/12 12:16:16;;;;;;;4.90;3.47;;;;;;;12.14;62.72;98102.44;6185194;23;20424;-78
2022/11/12 12:18:51;;;;;;;3.40;3.10;;;;;;;12.07;62.91;98097.03;6184492;23;20025;-78
2022/11/12 12:21:21;;;;;;;3.22;2.92;;;;;;;12.04;63.09;98102.53;6184767;23;20028;-77
2022/11/12 12:23:52;;;;;;;3.80;3.50;;;;;;;12.03;63.19;98100.09;6184258;23;20021;-76
2022/11/12 12:26:25;;;;;;;3.72;3.42;;;;;;;11.99;63.17;98096.16;6184038;23;20077;-77
2022/11/12 12:28:56;;;;;;;4.47;3.38;;;;;;;11.94;63.30;98094.81;6184343;23;20472;-76
2022/11/12 12:31:29;;;;;;;4.35;3.53;;;;;;;11.91;64.03;98092.47;6190079;23;20078;-77
2022/11/12 12:34:03;;;;;;;3.35;3.05;;;;;;;11.93;64.35;98092.34;6210387;23;20085;-77
2022/11/12 12:36:36;;;;;;;3.65;3.35;;;;;;;11.94;63.99;98086.16;6208329;23;20039;-76
2022/11/12 12:39:13;;;;;;;3.63;3.20;;;;;;;11.92;64.00;98088.91;6199496;23;20101;-76
2022/11/12 12:41:48;;;;;;;3.08;2.85;;;;;;;11.91;64.51;98083.81;6190656;23;20021;-76
2022/11/12 12:44:16;;;;;;;4.25;3.85;;;;;;;11.90;64.15;98085.63;6183746;23;20080;-78
2022/11/12 12:46:47;;;;;;;5.10;3.45;;;;;;;11.89;64.32;98086.59;6184475;23;20025;-76
2022/11/12 12:49:22;;;;;;;3.60;3.28;;;;;;;11.91;64.26;98086.44;6184794;23;20021;-76
2022/11/12 12:51:49;;;;;;;3.58;3.22;;;;;;;11.87;64.24;98078.06;6183942;23;20025;-76
2022/11/12 12:54:54;;;;;;;4.38;3.50;;;;;;;11.85;65.08;98077.41;6184412;23;20076;-76
2022/11/12 12:57:34;;;;;;;3.35;3.05;;;;;;;11.87;64.46;98075.47;6175680;23;20021;-81
2022/11/12 13:00:27;;;;;;;3.50;3.20;;;;;;;11.90;64.62;98061.28;6187464;23;20025;-80
2022/11/12 13:02:55;;;;;;;3.28;2.97;;;;;;;11.92;64.18;98069.78;6191137;23;20080;-81